sensor_id;sensor_type;location;lat;lon;timestamp;P1;durP1;ratioP1;P2;durP2;ratioP2
16531;SDS011;66872;63.142;14.482;2023-12-20T00:00:55;0.20;;;0.20;;
16531;SDS011;66872;63.142;14.482;2023-12-20T00:03:21;0.67;;;0.67;;
16531;SDS011;66872;63.142;14.482;2023-12-20T00:05:47;0.33;;;0.33;;
16531;SDS011;66872;63.142;14.482;2023-12-20T00:08:13;0.30;;;0.30;;
16531;SDS011;66872;63.142;14.482;2023-12-20T00:10:39;0.43;;;0.30;;
16531;SDS011;66872;63.142;14.482;2023-12-20T00:13:05;0.30;;;0.30;;
16531;SDS011;66872;63.142;14.482;2023-12-20T00:15:32;0.40;;;0.40;;
16531;SDS011;66872;63.142;14.482;2023-12-20T00:17:58;0.40;;;0.40;;
16531;SDS011;66872;63.142;14.482;2023-12-20T00:20:24;0.37;;;0.37;;
16531;SDS011;66872;63.142;14.482;2023-12-20T00:22:50;0.53;;;0.40;;
16531;SDS011;66872;63.142;14.482;2023-12-20T00:25:15;0.30;;;0.30;;
16531;SDS011;66872;63.142;14.482;2023-12-20T00:27:41;0.30;;;0.30;;
16531;SDS011;66872;63.142;14.482;2023-12-20T00:30:07;0.50;;;0.37;;
16531;SDS011;66872;63.142;14.482;2023-12-20T00:32:34;0.43;;;0.43;;
16531;SDS011;66872;63.142;14.482;2023-12-20T00:35:01;0.40;;;0.40;;
16531;SDS011;66872;63.142;14.482;2023-12-20T00:37:26;0.37;;;0.37;;
16531;SDS011;66872;63.142;14.482;2023-12-20T00:39:52;0.40;;;0.40;;
16531;SDS011;66872;63.142;14.482;2023-12-20T00:42:18;0.40;;;0.40;;
16531;SDS011;66872;63.142;14.482;2023-12-20T00:44:44;0.47;;;0.47;;
16531;SDS011;66872;63.142;14.482;2023-12-20T00:47:09;0.33;;;0.33;;
16531;SDS011;66872;63.142;14.482;2023-12-20T00:49:35;0.40;;;0.40;;
16531;SDS011;66872;63.142;14.482;2023-12-20T00:52:01;0.20;;;0.20;;
16531;SDS011;66872;63.142;14.482;2023-12-20T00:54:26;0.30;;;0.30;;
16531;SDS011;66872;63.142;14.482;2023-12-20T00:56:52;0.43;;;0.37;;
16531;SDS011;66872;63.142;14.482;2023-12-20T00:59:18;0.43;;;0.43;;
16531;SDS011;66872;63.142;14.482;2023-12-20T01:01:44;0.20;;;0.20;;
16531;SDS011;66872;63.142;14.482;2023-12-20T01:04:09;0.20;;;0.20;;
16531;SDS011;66872;63.142;14.482;2023-12-20T01:06:35;0.80;;;0.50;;
16531;SDS011;66872;63.142;14.482;2023-12-20T01:09:01;0.30;;;0.30;;
16531;SDS011;66872;63.142;14.482;2023-12-20T01:11:26;0.23;;;0.23;;
16531;SDS011;66872;63.142;14.482;2023-12-20T01:13:52;0.20;;;0.20;;
16531;SDS011;66872;63.142;14.482;2023-12-20T01:16:18;0.30;;;0.30;;
16531;SDS011;66872;63.142;14.482;2023-12-20T01:18:43;0.30;;;0.30;;
16531;SDS011;66872;63.142;14.482;2023-12-20T01:21:10;0.20;;;0.20;;
16531;SDS011;66872;63.142;14.482;2023-12-20T01:23:35;0.50;;;0.33;;
16531;SDS011;66872;63.142;14.482;2023-12-20T01:26:01;0.40;;;0.40;;
16531;SDS011;66872;63.142;14.482;2023-12-20T01:28:27;0.83;;;0.50;;
16531;SDS011;66872;63.142;14.482;2023-12-20T01:30:53;0.30;;;0.30;;
16531;SDS011;66872;63.142;14.482;2023-12-20T01:33:19;0.90;;;0.57;;
16531;SDS011;66872;63.142;14.482;2023-12-20T01:35:44;0.30;;;0.30;;
16531;SDS011;66872;63.142;14.482;2023-12-20T01:38:10;0.53;;;0.53;;
16531;SDS011;66872;63.142;14.482;2023-12-20T01:40:36;0.40;;;0.40;;
16531;SDS011;66872;63.142;14.482;2023-12-20T01:43:03;0.40;;;0.40;;
16531;SDS011;66872;63.142;14.482;2023-12-20T01:45:33;0.40;;;0.40;;
16531;SDS011;66872;63.142;14.482;2023-12-20T01:47:59;0.20;;;0.20;;
16531;SDS011;66872;63.142;14.482;2023-12-20T01:50:27;0.37;;;0.27;;
16531;SDS011;66872;63.142;14.482;2023-12-20T01:52:54;0.20;;;0.20;;
16531;SDS011;66872;63.142;14.482;2023-12-20T01:55:22;0.20;;;0.20;;
16531;SDS011;66872;63.142;14.482;2023-12-20T01:57:49;0.30;;;0.30;;
16531;SDS011;66872;63.142;14.482;2023-12-20T02:00:16;0.40;;;0.40;;
16531;SDS011;66872;63.142;14.482;2023-12-20T02:02:43;0.50;;;0.50;;
16531;SDS011;66872;63.142;14.482;2023-12-20T02:05:10;0.53;;;0.33;;
16531;SDS011;66872;63.142;14.482;2023-12-20T02:07:37;0.20;;;0.20;;
16531;SDS011;66872;63.142;14.482;2023-12-20T02:10:03;0.33;;;0.33;;
16531;SDS011;66872;63.142;14.482;2023-12-20T02:12:29;0.40;;;0.40;;
16531;SDS011;66872;63.142;14.482;2023-12-20T02:14:55;0.50;;;0.50;;
16531;SDS011;66872;63.142;14.482;2023-12-20T02:17:21;0.30;;;0.30;;
16531;SDS011;66872;63.142;14.482;2023-12-20T02:19:48;0.10;;;0.10;;
16531;SDS011;66872;63.142;14.482;2023-12-20T02:22:14;0.50;;;0.50;;
16531;SDS011;66872;63.142;14.482;2023-12-20T02:24:41;0.50;;;0.47;;
16531;SDS011;66872;63.142;14.482;2023-12-20T02:27:07;0.37;;;0.33;;
16531;SDS011;66872;63.142;14.482;2023-12-20T02:29:34;0.23;;;0.23;;
16531;SDS011;66872;63.142;14.482;2023-12-20T02:32:00;0.40;;;0.40;;
16531;SDS011;66872;63.142;14.482;2023-12-20T02:34:25;0.30;;;0.30;;
16531;SDS011;66872;63.142;14.482;2023-12-20T02:36:51;0.40;;;0.40;;
16531;SDS011;66872;63.142;14.482;2023-12-20T02:39:17;0.70;;;0.50;;
16531;SDS011;66872;63.142;14.482;2023-12-20T02:41:44;0.37;;;0.30;;
16531;SDS011;66872;63.142;14.482;2023-12-20T02:44:09;0.30;;;0.30;;
16531;SDS011;66872;63.142;14.482;2023-12-20T02:46:35;0.57;;;0.40;;
16531;SDS011;66872;63.142;14.482;2023-12-20T02:49:01;0.20;;;0.20;;
16531;SDS011;66872;63.142;14.482;2023-12-20T02:51:26;0.30;;;0.30;;
16531;SDS011;66872;63.142;14.482;2023-12-20T02:53:52;0.30;;;0.30;;
16531;SDS011;66872;63.142;14.482;2023-12-20T02:56:17;0.40;;;0.30;;
16531;SDS011;66872;63.142;14.482;2023-12-20T02:58:43;0.30;;;0.30;;
16531;SDS011;66872;63.142;14.482;2023-12-20T03:01:09;0.40;;;0.40;;
16531;SDS011;66872;63.142;14.482;2023-12-20T03:03:34;0.23;;;0.23;;
16531;SDS011;66872;63.142;14.482;2023-12-20T03:06:00;0.33;;;0.30;;
16531;SDS011;66872;63.142;14.482;2023-12-20T03:08:26;0.40;;;0.40;;
16531;SDS011;66872;63.142;14.482;2023-12-20T03:10:51;0.40;;;0.40;;
16531;SDS011;66872;63.142;14.482;2023-12-20T03:13:18;0.20;;;0.20;;
16531;SDS011;66872;63.142;14.482;2023-12-20T03:15:44;0.30;;;0.30;;
16531;SDS011;66872;63.142;14.482;2023-12-20T03:18:10;0.50;;;0.50;;
16531;SDS011;66872;63.142;14.482;2023-12-20T03:20:39;0.37;;;0.37;;
16531;SDS011;66872;63.142;14.482;2023-12-20T03:23:06;0.50;;;0.40;;
16531;SDS011;66872;63.142;14.482;2023-12-20T03:25:31;0.33;;;0.33;;
16531;SDS011;66872;63.142;14.482;2023-12-20T03:27:57;0.30;;;0.30;;
16531;SDS011;66872;63.142;14.482;2023-12-20T03:30:23;0.43;;;0.43;;
16531;SDS011;66872;63.142;14.482;2023-12-20T03:32:48;0.83;;;0.57;;
16531;SDS011;66872;63.142;14.482;2023-12-20T03:35:14;0.33;;;0.30;;
16531;SDS011;66872;63.142;14.482;2023-12-20T03:37:40;0.30;;;0.30;;
16531;SDS011;66872;63.142;14.482;2023-12-20T03:40:05;0.30;;;0.30;;
16531;SDS011;66872;63.142;14.482;2023-12-20T03:42:31;0.37;;;0.37;;
16531;SDS011;66872;63.142;14.482;2023-12-20T03:44:57;0.40;;;0.40;;
16531;SDS011;66872;63.142;14.482;2023-12-20T03:47:22;0.30;;;0.30;;
16531;SDS011;66872;63.142;14.482;2023-12-20T03:49:48;0.57;;;0.50;;
16531;SDS011;66872;63.142;14.482;2023-12-20T03:52:14;0.70;;;0.57;;
16531;SDS011;66872;63.142;14.482;2023-12-20T03:54:40;0.40;;;0.40;;
16531;SDS011;66872;63.142;14.482;2023-12-20T03:57:07;0.37;;;0.37;;
16531;SDS011;66872;63.142;14.482;2023-12-20T03:59:36;0.30;;;0.30;;
16531;SDS011;66872;63.142;14.482;2023-12-20T04:02:02;0.37;;;0.37;;
16531;SDS011;66872;63.142;14.482;2023-12-20T04:04:28;0.93;;;0.57;;
16531;SDS011;66872;63.142;14.482;2023-12-20T04:06:53;0.43;;;0.40;;
16531;SDS011;66872;63.142;14.482;2023-12-20T04:09:19;0.30;;;0.30;;
16531;SDS011;66872;63.142;14.482;2023-12-20T04:11:45;0.50;;;0.50;;
16531;SDS011;66872;63.142;14.482;2023-12-20T04:14:10;0.40;;;0.40;;
16531;SDS011;66872;63.142;14.482;2023-12-20T04:16:36;0.30;;;0.30;;
16531;SDS011;66872;63.142;14.482;2023-12-20T04:19:02;0.30;;;0.30;;
16531;SDS011;66872;63.142;14.482;2023-12-20T04:21:27;0.50;;;0.50;;
16531;SDS011;66872;63.142;14.482;2023-12-20T04:23:53;0.43;;;0.43;;
16531;SDS011;66872;63.142;14.482;2023-12-20T04:26:18;0.27;;;0.27;;
16531;SDS011;66872;63.142;14.482;2023-12-20T04:28:44;0.20;;;0.20;;
16531;SDS011;66872;63.142;14.482;2023-12-20T04:31:10;0.30;;;0.30;;
16531;SDS011;66872;63.142;14.482;2023-12-20T04:33:35;0.40;;;0.40;;
16531;SDS011;66872;63.142;14.482;2023-12-20T04:36:01;0.33;;;0.33;;
16531;SDS011;66872;63.142;14.482;2023-12-20T04:38:27;0.53;;;0.30;;
16531;SDS011;66872;63.142;14.482;2023-12-20T04:40:52;0.30;;;0.30;;
16531;SDS011;66872;63.142;14.482;2023-12-20T04:43:18;0.40;;;0.40;;
16531;SDS011;66872;63.142;14.482;2023-12-20T04:45:43;0.27;;;0.27;;
16531;SDS011;66872;63.142;14.482;2023-12-20T04:48:09;0.43;;;0.43;;
16531;SDS011;66872;63.142;14.482;2023-12-20T04:50:35;0.40;;;0.40;;
16531;SDS011;66872;63.142;14.482;2023-12-20T04:53:00;0.40;;;0.40;;
16531;SDS011;66872;63.142;14.482;2023-12-20T04:55:26;0.30;;;0.30;;
16531;SDS011;66872;63.142;14.482;2023-12-20T04:57:51;0.40;;;0.30;;
16531;SDS011;66872;63.142;14.482;2023-12-20T05:00:17;0.33;;;0.30;;
16531;SDS011;66872;63.142;14.482;2023-12-20T05:02:43;0.30;;;0.30;;
16531;SDS011;66872;63.142;14.482;2023-12-20T05:05:09;0.37;;;0.30;;
16531;SDS011;66872;63.142;14.482;2023-12-20T05:07:34;0.30;;;0.30;;
16531;SDS011;66872;63.142;14.482;2023-12-20T05:10:00;0.40;;;0.40;;
16531;SDS011;66872;63.142;14.482;2023-12-20T05:12:26;0.47;;;0.40;;
16531;SDS011;66872;63.142;14.482;2023-12-20T05:14:51;0.20;;;0.20;;
16531;SDS011;66872;63.142;14.482;2023-12-20T05:17:17;0.37;;;0.37;;
16531;SDS011;66872;63.142;14.482;2023-12-20T05:19:43;0.53;;;0.37;;
16531;SDS011;66872;63.142;14.482;2023-12-20T05:22:09;0.20;;;0.20;;
16531;SDS011;66872;63.142;14.482;2023-12-20T05:24:34;0.40;;;0.40;;
16531;SDS011;66872;63.142;14.482;2023-12-20T05:27:00;0.30;;;0.30;;
16531;SDS011;66872;63.142;14.482;2023-12-20T05:29:26;0.60;;;0.40;;
16531;SDS011;66872;63.142;14.482;2023-12-20T05:31:51;0.30;;;0.30;;
16531;SDS011;66872;63.142;14.482;2023-12-20T05:34:17;0.30;;;0.30;;
16531;SDS011;66872;63.142;14.482;2023-12-20T05:36:43;0.30;;;0.30;;
16531;SDS011;66872;63.142;14.482;2023-12-20T05:39:08;0.40;;;0.40;;
16531;SDS011;66872;63.142;14.482;2023-12-20T05:41:34;0.20;;;0.20;;
16531;SDS011;66872;63.142;14.482;2023-12-20T05:44:00;0.27;;;0.27;;
16531;SDS011;66872;63.142;14.482;2023-12-20T05:46:25;1.00;;;0.37;;
16531;SDS011;66872;63.142;14.482;2023-12-20T05:48:51;0.37;;;0.37;;
16531;SDS011;66872;63.142;14.482;2023-12-20T05:51:17;0.53;;;0.47;;
16531;SDS011;66872;63.142;14.482;2023-12-20T05:53:43;0.27;;;0.27;;
16531;SDS011;66872;63.142;14.482;2023-12-20T05:56:09;0.40;;;0.40;;
16531;SDS011;66872;63.142;14.482;2023-12-20T05:58:36;0.63;;;0.50;;
16531;SDS011;66872;63.142;14.482;2023-12-20T06:01:04;0.50;;;0.40;;
16531;SDS011;66872;63.142;14.482;2023-12-20T06:03:30;0.40;;;0.40;;
16531;SDS011;66872;63.142;14.482;2023-12-20T06:05:56;0.43;;;0.43;;
16531;SDS011;66872;63.142;14.482;2023-12-20T06:08:21;0.27;;;0.27;;
16531;SDS011;66872;63.142;14.482;2023-12-20T06:10:48;0.50;;;0.50;;
16531;SDS011;66872;63.142;14.482;2023-12-20T06:13:14;0.40;;;0.40;;
16531;SDS011;66872;63.142;14.482;2023-12-20T06:15:39;0.57;;;0.43;;
16531;SDS011;66872;63.142;14.482;2023-12-20T06:18:05;0.20;;;0.20;;
16531;SDS011;66872;63.142;14.482;2023-12-20T06:20:32;0.40;;;0.40;;
16531;SDS011;66872;63.142;14.482;2023-12-20T06:22:58;0.47;;;0.40;;
16531;SDS011;66872;63.142;14.482;2023-12-20T06:25:23;0.57;;;0.57;;
16531;SDS011;66872;63.142;14.482;2023-12-20T06:27:50;0.47;;;0.33;;
16531;SDS011;66872;63.142;14.482;2023-12-20T06:30:15;0.50;;;0.50;;
16531;SDS011;66872;63.142;14.482;2023-12-20T06:32:41;0.50;;;0.50;;
16531;SDS011;66872;63.142;14.482;2023-12-20T06:35:08;0.53;;;0.53;;
16531;SDS011;66872;63.142;14.482;2023-12-20T06:37:34;0.30;;;0.30;;
16531;SDS011;66872;63.142;14.482;2023-12-20T06:40:00;0.40;;;0.40;;
16531;SDS011;66872;63.142;14.482;2023-12-20T06:42:26;0.33;;;0.33;;
16531;SDS011;66872;63.142;14.482;2023-12-20T06:44:51;0.40;;;0.40;;
16531;SDS011;66872;63.142;14.482;2023-12-20T06:47:17;0.43;;;0.43;;
16531;SDS011;66872;63.142;14.482;2023-12-20T06:49:43;0.53;;;0.50;;
16531;SDS011;66872;63.142;14.482;2023-12-20T06:52:09;0.60;;;0.60;;
16531;SDS011;66872;63.142;14.482;2023-12-20T06:54:35;0.40;;;0.40;;
16531;SDS011;66872;63.142;14.482;2023-12-20T06:57:01;0.50;;;0.50;;
16531;SDS011;66872;63.142;14.482;2023-12-20T06:59:28;0.50;;;0.50;;
16531;SDS011;66872;63.142;14.482;2023-12-20T07:01:54;0.40;;;0.40;;
16531;SDS011;66872;63.142;14.482;2023-12-20T07:04:20;0.77;;;0.50;;
16531;SDS011;66872;63.142;14.482;2023-12-20T07:06:50;0.47;;;0.40;;
16531;SDS011;66872;63.142;14.482;2023-12-20T07:09:17;0.83;;;0.60;;
16531;SDS011;66872;63.142;14.482;2023-12-20T07:11:42;0.37;;;0.37;;
16531;SDS011;66872;63.142;14.482;2023-12-20T07:14:08;0.43;;;0.43;;
16531;SDS011;66872;63.142;14.482;2023-12-20T07:16:34;0.37;;;0.37;;
16531;SDS011;66872;63.142;14.482;2023-12-20T07:19:00;0.50;;;0.40;;
16531;SDS011;66872;63.142;14.482;2023-12-20T07:21:25;0.27;;;0.27;;
16531;SDS011;66872;63.142;14.482;2023-12-20T07:23:51;0.43;;;0.43;;
16531;SDS011;66872;63.142;14.482;2023-12-20T07:26:17;0.30;;;0.30;;
16531;SDS011;66872;63.142;14.482;2023-12-20T07:28:42;0.27;;;0.27;;
16531;SDS011;66872;63.142;14.482;2023-12-20T07:31:08;0.70;;;0.70;;
16531;SDS011;66872;63.142;14.482;2023-12-20T07:33:34;0.70;;;0.40;;
16531;SDS011;66872;63.142;14.482;2023-12-20T07:35:59;0.40;;;0.40;;
16531;SDS011;66872;63.142;14.482;2023-12-20T07:38:25;0.37;;;0.37;;
16531;SDS011;66872;63.142;14.482;2023-12-20T07:40:51;0.50;;;0.50;;
16531;SDS011;66872;63.142;14.482;2023-12-20T07:43:17;0.40;;;0.40;;
16531;SDS011;66872;63.142;14.482;2023-12-20T07:45:43;0.40;;;0.40;;
16531;SDS011;66872;63.142;14.482;2023-12-20T07:48:08;0.70;;;0.53;;
16531;SDS011;66872;63.142;14.482;2023-12-20T07:50:34;0.47;;;0.47;;
16531;SDS011;66872;63.142;14.482;2023-12-20T07:52:59;0.40;;;0.40;;
16531;SDS011;66872;63.142;14.482;2023-12-20T07:55:26;0.60;;;0.60;;
16531;SDS011;66872;63.142;14.482;2023-12-20T07:57:52;0.67;;;0.40;;
16531;SDS011;66872;63.142;14.482;2023-12-20T08:00:18;0.33;;;0.33;;
16531;SDS011;66872;63.142;14.482;2023-12-20T08:02:44;0.60;;;0.50;;
16531;SDS011;66872;63.142;14.482;2023-12-20T08:05:10;0.57;;;0.57;;
16531;SDS011;66872;63.142;14.482;2023-12-20T08:07:35;0.60;;;0.50;;
16531;SDS011;66872;63.142;14.482;2023-12-20T08:10:01;0.20;;;0.20;;
16531;SDS011;66872;63.142;14.482;2023-12-20T08:12:27;0.40;;;0.40;;
16531;SDS011;66872;63.142;14.482;2023-12-20T08:14:53;0.67;;;0.50;;
16531;SDS011;66872;63.142;14.482;2023-12-20T08:17:19;0.30;;;0.30;;
16531;SDS011;66872;63.142;14.482;2023-12-20T08:19:45;0.40;;;0.40;;
16531;SDS011;66872;63.142;14.482;2023-12-20T08:22:11;0.40;;;0.40;;
16531;SDS011;66872;63.142;14.482;2023-12-20T08:24:37;0.87;;;0.43;;
16531;SDS011;66872;63.142;14.482;2023-12-20T08:27:03;0.30;;;0.30;;
16531;SDS011;66872;63.142;14.482;2023-12-20T08:29:29;0.50;;;0.50;;
16531;SDS011;66872;63.142;14.482;2023-12-20T08:31:55;0.40;;;0.40;;
16531;SDS011;66872;63.142;14.482;2023-12-20T08:34:21;0.30;;;0.30;;
16531;SDS011;66872;63.142;14.482;2023-12-20T08:36:47;0.60;;;0.60;;
16531;SDS011;66872;63.142;14.482;2023-12-20T08:39:12;0.53;;;0.53;;
16531;SDS011;66872;63.142;14.482;2023-12-20T08:41:38;0.60;;;0.50;;
16531;SDS011;66872;63.142;14.482;2023-12-20T08:44:04;0.43;;;0.40;;
16531;SDS011;66872;63.142;14.482;2023-12-20T08:46:30;0.60;;;0.50;;
16531;SDS011;66872;63.142;14.482;2023-12-20T08:48:55;0.40;;;0.40;;
16531;SDS011;66872;63.142;14.482;2023-12-20T08:51:21;0.47;;;0.47;;
16531;SDS011;66872;63.142;14.482;2023-12-20T08:53:48;0.50;;;0.50;;
16531;SDS011;66872;63.142;14.482;2023-12-20T08:56:14;0.67;;;0.60;;
16531;SDS011;66872;63.142;14.482;2023-12-20T08:58:40;0.50;;;0.50;;
16531;SDS011;66872;63.142;14.482;2023-12-20T09:01:06;0.57;;;0.50;;
16531;SDS011;66872;63.142;14.482;2023-12-20T09:03:32;0.20;;;0.20;;
16531;SDS011;66872;63.142;14.482;2023-12-20T09:05:58;0.60;;;0.40;;
16531;SDS011;66872;63.142;14.482;2023-12-20T09:08:24;0.50;;;0.50;;
16531;SDS011;66872;63.142;14.482;2023-12-20T09:10:49;0.63;;;0.50;;
16531;SDS011;66872;63.142;14.482;2023-12-20T09:13:15;0.67;;;0.60;;
16531;SDS011;66872;63.142;14.482;2023-12-20T09:15:41;0.47;;;0.47;;
16531;SDS011;66872;63.142;14.482;2023-12-20T09:18:07;0.40;;;0.40;;
16531;SDS011;66872;63.142;14.482;2023-12-20T09:20:33;0.43;;;0.43;;
16531;SDS011;66872;63.142;14.482;2023-12-20T09:22:59;0.50;;;0.50;;
16531;SDS011;66872;63.142;14.482;2023-12-20T09:25:25;0.50;;;0.50;;
16531;SDS011;66872;63.142;14.482;2023-12-20T09:27:51;0.40;;;0.40;;
16531;SDS011;66872;63.142;14.482;2023-12-20T09:30:17;0.50;;;0.50;;
16531;SDS011;66872;63.142;14.482;2023-12-20T09:32:44;0.50;;;0.50;;
16531;SDS011;66872;63.142;14.482;2023-12-20T09:35:10;0.67;;;0.57;;
16531;SDS011;66872;63.142;14.482;2023-12-20T09:37:36;0.50;;;0.50;;
16531;SDS011;66872;63.142;14.482;2023-12-20T09:40:02;0.40;;;0.40;;
16531;SDS011;66872;63.142;14.482;2023-12-20T09:42:38;0.50;;;0.50;;
16531;SDS011;66872;63.142;14.482;2023-12-20T09:45:34;0.30;;;0.30;;
16531;SDS011;66872;63.142;14.482;2023-12-20T09:48:00;0.50;;;0.40;;
16531;SDS011;66872;63.142;14.482;2023-12-20T09:50:30;0.40;;;0.40;;
16531;SDS011;66872;63.142;14.482;2023-12-20T09:52:57;0.53;;;0.53;;
16531;SDS011;66872;63.142;14.482;2023-12-20T09:55:25;0.50;;;0.50;;
16531;SDS011;66872;63.142;14.482;2023-12-20T09:57:53;0.50;;;0.50;;
16531;SDS011;66872;63.142;14.482;2023-12-20T10:00:19;0.40;;;0.40;;
16531;SDS011;66872;63.142;14.482;2023-12-20T10:02:45;0.53;;;0.53;;
16531;SDS011;66872;63.142;14.482;2023-12-20T10:05:26;0.40;;;0.40;;
16531;SDS011;66872;63.142;14.482;2023-12-20T10:07:58;0.40;;;0.40;;
16531;SDS011;66872;63.142;14.482;2023-12-20T10:10:25;0.30;;;0.30;;
16531;SDS011;66872;63.142;14.482;2023-12-20T10:13:04;0.40;;;0.40;;
16531;SDS011;66872;63.142;14.482;2023-12-20T10:15:32;0.43;;;0.43;;
16531;SDS011;66872;63.142;14.482;2023-12-20T10:18:01;0.50;;;0.50;;
16531;SDS011;66872;63.142;14.482;2023-12-20T10:20:27;0.50;;;0.50;;
16531;SDS011;66872;63.142;14.482;2023-12-20T10:22:54;0.40;;;0.40;;
16531;SDS011;66872;63.142;14.482;2023-12-20T10:25:23;0.50;;;0.50;;
16531;SDS011;66872;63.142;14.482;2023-12-20T10:27:50;0.40;;;0.40;;
16531;SDS011;66872;63.142;14.482;2023-12-20T10:30:33;0.50;;;0.50;;
16531;SDS011;66872;63.142;14.482;2023-12-20T10:32:58;0.47;;;0.47;;
16531;SDS011;66872;63.142;14.482;2023-12-20T10:35:24;0.43;;;0.43;;
16531;SDS011;66872;63.142;14.482;2023-12-20T10:37:51;0.40;;;0.40;;
16531;SDS011;66872;63.142;14.482;2023-12-20T10:40:21;0.63;;;0.63;;
16531;SDS011;66872;63.142;14.482;2023-12-20T10:42:48;0.33;;;0.33;;
16531;SDS011;66872;63.142;14.482;2023-12-20T10:45:15;0.50;;;0.50;;
16531;SDS011;66872;63.142;14.482;2023-12-20T10:47:42;0.30;;;0.30;;
16531;SDS011;66872;63.142;14.482;2023-12-20T10:50:11;0.70;;;0.70;;
16531;SDS011;66872;63.142;14.482;2023-12-20T10:52:37;0.73;;;0.50;;
16531;SDS011;66872;63.142;14.482;2023-12-20T10:55:05;0.50;;;0.50;;
16531;SDS011;66872;63.142;14.482;2023-12-20T10:57:31;0.70;;;0.60;;
16531;SDS011;66872;63.142;14.482;2023-12-20T10:59:59;0.50;;;0.50;;
16531;SDS011;66872;63.142;14.482;2023-12-20T11:02:31;0.40;;;0.40;;
16531;SDS011;66872;63.142;14.482;2023-12-20T11:05:23;0.50;;;0.50;;
16531;SDS011;66872;63.142;14.482;2023-12-20T11:08:02;0.50;;;0.50;;
16531;SDS011;66872;63.142;14.482;2023-12-20T11:10:41;0.50;;;0.50;;
16531;SDS011;66872;63.142;14.482;2023-12-20T11:13:25;0.50;;;0.50;;
16531;SDS011;66872;63.142;14.482;2023-12-20T11:15:55;0.67;;;0.67;;
16531;SDS011;66872;63.142;14.482;2023-12-20T11:18:22;0.60;;;0.60;;
16531;SDS011;66872;63.142;14.482;2023-12-20T11:21:04;0.30;;;0.30;;
16531;SDS011;66872;63.142;14.482;2023-12-20T11:23:30;0.20;;;0.20;;
16531;SDS011;66872;63.142;14.482;2023-12-20T11:25:59;0.50;;;0.50;;
16531;SDS011;66872;63.142;14.482;2023-12-20T11:28:26;0.50;;;0.50;;
16531;SDS011;66872;63.142;14.482;2023-12-20T11:33:25;0.70;;;0.60;;
16531;SDS011;66872;63.142;14.482;2023-12-20T11:35:55;0.60;;;0.60;;
16531;SDS011;66872;63.142;14.482;2023-12-20T11:38:22;0.43;;;0.43;;
16531;SDS011;66872;63.142;14.482;2023-12-20T11:40:49;0.70;;;0.63;;
16531;SDS011;66872;63.142;14.482;2023-12-20T11:46:02;0.63;;;0.63;;
16531;SDS011;66872;63.142;14.482;2023-12-20T11:48:30;0.63;;;0.63;;
16531;SDS011;66872;63.142;14.482;2023-12-20T11:50:56;0.50;;;0.50;;
16531;SDS011;66872;63.142;14.482;2023-12-20T11:53:22;0.47;;;0.40;;
16531;SDS011;66872;63.142;14.482;2023-12-20T11:55:50;0.50;;;0.50;;
16531;SDS011;66872;63.142;14.482;2023-12-20T11:58:16;0.63;;;0.63;;
16531;SDS011;66872;63.142;14.482;2023-12-20T12:00:42;0.70;;;0.70;;
16531;SDS011;66872;63.142;14.482;2023-12-20T12:03:08;0.60;;;0.60;;
16531;SDS011;66872;63.142;14.482;2023-12-20T12:05:34;1.30;;;0.77;;
16531;SDS011;66872;63.142;14.482;2023-12-20T12:08:01;0.70;;;0.70;;
16531;SDS011;66872;63.142;14.482;2023-12-20T12:10:27;0.70;;;0.60;;
16531;SDS011;66872;63.142;14.482;2023-12-20T12:12:53;0.70;;;0.67;;
16531;SDS011;66872;63.142;14.482;2023-12-20T12:15:19;0.60;;;0.50;;
16531;SDS011;66872;63.142;14.482;2023-12-20T12:17:52;0.87;;;0.67;;
16531;SDS011;66872;63.142;14.482;2023-12-20T12:20:19;0.70;;;0.70;;
16531;SDS011;66872;63.142;14.482;2023-12-20T12:22:45;0.60;;;0.60;;
16531;SDS011;66872;63.142;14.482;2023-12-20T12:25:15;0.50;;;0.50;;
16531;SDS011;66872;63.142;14.482;2023-12-20T12:27:41;1.03;;;0.60;;
16531;SDS011;66872;63.142;14.482;2023-12-20T12:30:08;0.57;;;0.57;;
16531;SDS011;66872;63.142;14.482;2023-12-20T12:32:35;0.60;;;0.60;;
16531;SDS011;66872;63.142;14.482;2023-12-20T12:35:02;0.60;;;0.50;;
16531;SDS011;66872;63.142;14.482;2023-12-20T12:37:33;0.80;;;0.70;;
16531;SDS011;66872;63.142;14.482;2023-12-20T12:40:00;0.60;;;0.60;;
16531;SDS011;66872;63.142;14.482;2023-12-20T12:42:26;0.70;;;0.60;;
16531;SDS011;66872;63.142;14.482;2023-12-20T12:44:54;0.73;;;0.70;;
16531;SDS011;66872;63.142;14.482;2023-12-20T12:47:20;0.60;;;0.60;;
16531;SDS011;66872;63.142;14.482;2023-12-20T12:49:46;0.50;;;0.50;;
16531;SDS011;66872;63.142;14.482;2023-12-20T12:52:12;0.60;;;0.60;;
16531;SDS011;66872;63.142;14.482;2023-12-20T12:54:38;0.67;;;0.67;;
16531;SDS011;66872;63.142;14.482;2023-12-20T12:57:04;0.53;;;0.53;;
16531;SDS011;66872;63.142;14.482;2023-12-20T12:59:29;0.67;;;0.60;;
16531;SDS011;66872;63.142;14.482;2023-12-20T13:01:55;0.70;;;0.60;;
16531;SDS011;66872;63.142;14.482;2023-12-20T13:04:21;0.60;;;0.60;;
16531;SDS011;66872;63.142;14.482;2023-12-20T13:06:47;0.70;;;0.50;;
16531;SDS011;66872;63.142;14.482;2023-12-20T13:09:13;0.60;;;0.60;;
16531;SDS011;66872;63.142;14.482;2023-12-20T13:11:40;0.80;;;0.70;;
16531;SDS011;66872;63.142;14.482;2023-12-20T13:14:05;0.73;;;0.70;;
16531;SDS011;66872;63.142;14.482;2023-12-20T13:16:32;0.90;;;0.70;;
16531;SDS011;66872;63.142;14.482;2023-12-20T13:18:59;0.60;;;0.60;;
16531;SDS011;66872;63.142;14.482;2023-12-20T13:21:25;0.70;;;0.70;;
16531;SDS011;66872;63.142;14.482;2023-12-20T13:23:50;0.70;;;0.70;;
16531;SDS011;66872;63.142;14.482;2023-12-20T13:26:16;0.57;;;0.57;;
16531;SDS011;66872;63.142;14.482;2023-12-20T13:28:42;0.77;;;0.70;;
16531;SDS011;66872;63.142;14.482;2023-12-20T13:31:08;0.60;;;0.60;;
16531;SDS011;66872;63.142;14.482;2023-12-20T13:33:34;0.60;;;0.60;;
16531;SDS011;66872;63.142;14.482;2023-12-20T13:35:59;0.53;;;0.53;;
16531;SDS011;66872;63.142;14.482;2023-12-20T13:38:25;0.87;;;0.60;;
16531;SDS011;66872;63.142;14.482;2023-12-20T13:40:51;1.43;;;0.70;;
16531;SDS011;66872;63.142;14.482;2023-12-20T13:43:16;0.83;;;0.83;;
16531;SDS011;66872;63.142;14.482;2023-12-20T13:45:45;2.00;;;1.00;;
16531;SDS011;66872;63.142;14.482;2023-12-20T13:48:11;0.90;;;0.90;;
16531;SDS011;66872;63.142;14.482;2023-12-20T13:50:37;1.03;;;0.60;;
16531;SDS011;66872;63.142;14.482;2023-12-20T13:53:03;1.00;;;0.80;;
16531;SDS011;66872;63.142;14.482;2023-12-20T13:55:29;0.90;;;0.80;;
16531;SDS011;66872;63.142;14.482;2023-12-20T13:57:55;89.40;;;9.17;;
16531;SDS011;66872;63.142;14.482;2023-12-20T14:00:22;38.93;;;4.20;;
16531;SDS011;66872;63.142;14.482;2023-12-20T14:02:47;38.70;;;4.10;;
16531;SDS011;66872;63.142;14.482;2023-12-20T14:05:13;32.17;;;3.57;;
16531;SDS011;66872;63.142;14.482;2023-12-20T14:07:43;24.73;;;3.00;;
16531;SDS011;66872;63.142;14.482;2023-12-20T14:10:15;18.33;;;3.13;;
16531;SDS011;66872;63.142;14.482;2023-12-20T14:12:40;21.80;;;3.47;;
16531;SDS011;66872;63.142;14.482;2023-12-20T14:15:06;21.30;;;2.97;;
16531;SDS011;66872;63.142;14.482;2023-12-20T14:17:39;28.00;;;3.50;;
16531;SDS011;66872;63.142;14.482;2023-12-20T14:20:06;13.70;;;2.33;;
16531;SDS011;66872;63.142;14.482;2023-12-20T14:22:33;7.13;;;2.10;;
16531;SDS011;66872;63.142;14.482;2023-12-20T14:24:59;12.70;;;2.37;;
16531;SDS011;66872;63.142;14.482;2023-12-20T14:27:25;7.37;;;2.03;;
16531;SDS011;66872;63.142;14.482;2023-12-20T14:29:53;11.77;;;2.40;;
16531;SDS011;66872;63.142;14.482;2023-12-20T14:32:23;11.73;;;2.37;;
16531;SDS011;66872;63.142;14.482;2023-12-20T14:34:51;9.03;;;2.13;;